sensor_id;sensor_type;location;lat;lon;timestamp;P1;durP1;ratioP1;P2;durP2;ratioP2
7027;SDS011;3555;53.248;10.336;2023-09-18T00:00:23;4.43;;;4.03;;
7027;SDS011;3555;53.248;10.336;2023-09-18T00:02:50;4.30;;;3.90;;
7027;SDS011;3555;53.248;10.336;2023-09-18T00:05:17;6.07;;;4.20;;
7027;SDS011;3555;53.248;10.336;2023-09-18T00:07:44;4.68;;;3.53;;
7027;SDS011;3555;53.248;10.336;2023-09-18T00:10:11;4.53;;;3.67;;
7027;SDS011;3555;53.248;10.336;2023-09-18T00:12:38;6.05;;;3.92;;
7027;SDS011;3555;53.248;10.336;2023-09-18T00:15:06;4.43;;;3.85;;
7027;SDS011;3555;53.248;10.336;2023-09-18T00:17:35;4.65;;;4.15;;
7027;SDS011;3555;53.248;10.336;2023-09-18T00:20:02;4.20;;;3.80;;
7027;SDS011;3555;53.248;10.336;2023-09-18T00:22:31;5.07;;;3.72;;
7027;SDS011;3555;53.248;10.336;2023-09-18T00:24:59;6.93;;;3.78;;
7027;SDS011;3555;53.248;10.336;2023-09-18T00:27:26;4.82;;;4.28;;
7027;SDS011;3555;53.248;10.336;2023-09-18T00:29:53;5.03;;;3.80;;
7027;SDS011;3555;53.248;10.336;2023-09-18T00:32:20;4.60;;;4.20;;
7027;SDS011;3555;53.248;10.336;2023-09-18T00:34:48;5.60;;;4.13;;
7027;SDS011;3555;53.248;10.336;2023-09-18T00:37:15;4.78;;;4.03;;
7027;SDS011;3555;53.248;10.336;2023-09-18T00:39:42;7.18;;;4.43;;
7027;SDS011;3555;53.248;10.336;2023-09-18T00:42:09;4.68;;;4.00;;
7027;SDS011;3555;53.248;10.336;2023-09-18T00:44:38;6.32;;;3.85;;
7027;SDS011;3555;53.248;10.336;2023-09-18T00:47:06;4.70;;;4.10;;
7027;SDS011;3555;53.248;10.336;2023-09-18T00:49:33;4.40;;;4.00;;
7027;SDS011;3555;53.248;10.336;2023-09-18T00:52:03;4.35;;;3.95;;
7027;SDS011;3555;53.248;10.336;2023-09-18T00:54:32;6.65;;;4.90;;
7027;SDS011;3555;53.248;10.336;2023-09-18T00:57:00;5.43;;;4.28;;
7027;SDS011;3555;53.248;10.336;2023-09-18T00:59:27;4.40;;;3.97;;
7027;SDS011;3555;53.248;10.336;2023-09-18T01:01:54;4.97;;;4.45;;
7027;SDS011;3555;53.248;10.336;2023-09-18T01:04:21;4.65;;;4.25;;
7027;SDS011;3555;53.248;10.336;2023-09-18T01:06:50;4.07;;;3.67;;
7027;SDS011;3555;53.248;10.336;2023-09-18T01:09:19;5.50;;;4.13;;
7027;SDS011;3555;53.248;10.336;2023-09-18T01:11:49;5.97;;;4.20;;
7027;SDS011;3555;53.248;10.336;2023-09-18T01:14:20;5.15;;;4.38;;
7027;SDS011;3555;53.248;10.336;2023-09-18T01:16:56;4.47;;;4.07;;
7027;SDS011;3555;53.248;10.336;2023-09-18T01:19:37;4.28;;;3.88;;
7027;SDS011;3555;53.248;10.336;2023-09-18T01:22:05;5.03;;;4.03;;
7027;SDS011;3555;53.248;10.336;2023-09-18T01:24:34;4.80;;;4.30;;
7027;SDS011;3555;53.248;10.336;2023-09-18T01:27:02;4.72;;;4.07;;
7027;SDS011;3555;53.248;10.336;2023-09-18T01:29:29;4.55;;;4.15;;
7027;SDS011;3555;53.248;10.336;2023-09-18T01:31:56;4.40;;;4.00;;
7027;SDS011;3555;53.248;10.336;2023-09-18T01:34:25;5.22;;;4.40;;
7027;SDS011;3555;53.248;10.336;2023-09-18T01:36:58;4.25;;;3.85;;
7027;SDS011;3555;53.248;10.336;2023-09-18T01:39:26;4.15;;;3.70;;
7027;SDS011;3555;53.248;10.336;2023-09-18T01:41:57;4.93;;;4.40;;
7027;SDS011;3555;53.248;10.336;2023-09-18T01:44:25;4.97;;;4.35;;
7027;SDS011;3555;53.248;10.336;2023-09-18T01:46:52;5.57;;;3.97;;
7027;SDS011;3555;53.248;10.336;2023-09-18T01:49:26;4.40;;;4.00;;
7027;SDS011;3555;53.248;10.336;2023-09-18T01:51:53;6.55;;;4.47;;
7027;SDS011;3555;53.248;10.336;2023-09-18T01:54:20;5.00;;;4.18;;
7027;SDS011;3555;53.248;10.336;2023-09-18T01:56:47;5.28;;;4.57;;
7027;SDS011;3555;53.248;10.336;2023-09-18T01:59:15;4.90;;;4.40;;
7027;SDS011;3555;53.248;10.336;2023-09-18T02:01:43;5.03;;;4.20;;
7027;SDS011;3555;53.248;10.336;2023-09-18T02:04:09;4.72;;;4.22;;
7027;SDS011;3555;53.248;10.336;2023-09-18T02:06:36;4.70;;;4.30;;
7027;SDS011;3555;53.248;10.336;2023-09-18T02:09:04;4.93;;;4.50;;
7027;SDS011;3555;53.248;10.336;2023-09-18T02:11:32;5.22;;;4.28;;
7027;SDS011;3555;53.248;10.336;2023-09-18T02:13:59;4.80;;;4.05;;
7027;SDS011;3555;53.248;10.336;2023-09-18T02:16:31;5.63;;;4.70;;
7027;SDS011;3555;53.248;10.336;2023-09-18T02:18:59;4.85;;;4.03;;
7027;SDS011;3555;53.248;10.336;2023-09-18T02:21:26;4.72;;;4.30;;
7027;SDS011;3555;53.248;10.336;2023-09-18T02:23:53;6.10;;;4.18;;
7027;SDS011;3555;53.248;10.336;2023-09-18T02:26:20;5.60;;;4.35;;
7027;SDS011;3555;53.248;10.336;2023-09-18T02:28:48;5.47;;;4.05;;
7027;SDS011;3555;53.248;10.336;2023-09-18T02:31:15;5.32;;;4.40;;
7027;SDS011;3555;53.248;10.336;2023-09-18T02:33:44;8.05;;;4.50;;
7027;SDS011;3555;53.248;10.336;2023-09-18T02:36:11;7.10;;;4.18;;
7027;SDS011;3555;53.248;10.336;2023-09-18T02:38:38;5.22;;;4.30;;
7027;SDS011;3555;53.248;10.336;2023-09-18T02:41:05;4.85;;;4.35;;
7027;SDS011;3555;53.248;10.336;2023-09-18T02:43:32;4.82;;;4.40;;
7027;SDS011;3555;53.248;10.336;2023-09-18T02:45:59;5.90;;;4.38;;
7027;SDS011;3555;53.248;10.336;2023-09-18T02:48:26;4.72;;;4.32;;
7027;SDS011;3555;53.248;10.336;2023-09-18T02:50:54;5.72;;;4.85;;
7027;SDS011;3555;53.248;10.336;2023-09-18T02:53:22;6.18;;;4.72;;
7027;SDS011;3555;53.248;10.336;2023-09-18T02:55:50;5.63;;;4.90;;
7027;SDS011;3555;53.248;10.336;2023-09-18T02:58:18;5.38;;;4.88;;
7027;SDS011;3555;53.248;10.336;2023-09-18T03:00:45;4.90;;;4.35;;
7027;SDS011;3555;53.248;10.336;2023-09-18T03:03:13;4.82;;;4.32;;
7027;SDS011;3555;53.248;10.336;2023-09-18T03:05:41;5.75;;;4.60;;
7027;SDS011;3555;53.248;10.336;2023-09-18T03:08:10;5.40;;;3.95;;
7027;SDS011;3555;53.248;10.336;2023-09-18T03:10:40;7.90;;;4.72;;
7027;SDS011;3555;53.248;10.336;2023-09-18T03:13:08;5.30;;;4.78;;
7027;SDS011;3555;53.248;10.336;2023-09-18T03:15:35;6.15;;;4.55;;
7027;SDS011;3555;53.248;10.336;2023-09-18T03:18:03;5.40;;;4.35;;
7027;SDS011;3555;53.248;10.336;2023-09-18T03:20:32;4.70;;;4.20;;
7027;SDS011;3555;53.248;10.336;2023-09-18T03:22:59;6.60;;;4.55;;
7027;SDS011;3555;53.248;10.336;2023-09-18T03:25:28;5.50;;;4.38;;
7027;SDS011;3555;53.248;10.336;2023-09-18T03:27:55;5.60;;;4.78;;
7027;SDS011;3555;53.248;10.336;2023-09-18T03:30:23;5.22;;;4.72;;
7027;SDS011;3555;53.248;10.336;2023-09-18T03:32:51;5.40;;;4.90;;
7027;SDS011;3555;53.248;10.336;2023-09-18T03:35:18;7.30;;;5.00;;
7027;SDS011;3555;53.248;10.336;2023-09-18T03:37:45;4.90;;;4.40;;
7027;SDS011;3555;53.248;10.336;2023-09-18T03:40:13;5.57;;;5.05;;
7027;SDS011;3555;53.248;10.336;2023-09-18T03:42:41;6.05;;;5.25;;
7027;SDS011;3555;53.248;10.336;2023-09-18T03:45:08;4.90;;;4.40;;
7027;SDS011;3555;53.248;10.336;2023-09-18T03:47:36;4.85;;;4.35;;
7027;SDS011;3555;53.248;10.336;2023-09-18T03:50:04;5.32;;;4.57;;
7027;SDS011;3555;53.248;10.336;2023-09-18T03:52:32;6.15;;;4.85;;
7027;SDS011;3555;53.248;10.336;2023-09-18T03:54:59;5.45;;;4.85;;
7027;SDS011;3555;53.248;10.336;2023-09-18T03:57:26;6.80;;;4.80;;
7027;SDS011;3555;53.248;10.336;2023-09-18T03:59:54;5.25;;;4.75;;
7027;SDS011;3555;53.248;10.336;2023-09-18T04:02:21;5.65;;;5.15;;
7027;SDS011;3555;53.248;10.336;2023-09-18T04:04:50;6.35;;;4.70;;
7027;SDS011;3555;53.248;10.336;2023-09-18T04:07:17;5.50;;;5.00;;
7027;SDS011;3555;53.248;10.336;2023-09-18T04:09:44;5.25;;;4.75;;
7027;SDS011;3555;53.248;10.336;2023-09-18T04:12:11;6.55;;;5.30;;
7027;SDS011;3555;53.248;10.336;2023-09-18T04:14:39;5.70;;;5.07;;
7027;SDS011;3555;53.248;10.336;2023-09-18T04:17:07;7.97;;;5.00;;
7027;SDS011;3555;53.248;10.336;2023-09-18T04:19:34;5.78;;;4.60;;
7027;SDS011;3555;53.248;10.336;2023-09-18T04:22:02;5.47;;;4.97;;
7027;SDS011;3555;53.248;10.336;2023-09-18T04:24:29;7.30;;;4.93;;
7027;SDS011;3555;53.248;10.336;2023-09-18T04:26:55;5.65;;;5.10;;
7027;SDS011;3555;53.248;10.336;2023-09-18T04:29:22;6.43;;;5.22;;
7027;SDS011;3555;53.248;10.336;2023-09-18T04:31:49;5.28;;;4.70;;
7027;SDS011;3555;53.248;10.336;2023-09-18T04:34:17;6.30;;;5.30;;
7027;SDS011;3555;53.248;10.336;2023-09-18T04:36:44;5.38;;;4.88;;
7027;SDS011;3555;53.248;10.336;2023-09-18T04:39:11;5.88;;;4.93;;
7027;SDS011;3555;53.248;10.336;2023-09-18T04:41:39;5.75;;;5.10;;
7027;SDS011;3555;53.248;10.336;2023-09-18T04:44:06;6.05;;;5.45;;
7027;SDS011;3555;53.248;10.336;2023-09-18T04:46:32;5.78;;;5.28;;
7027;SDS011;3555;53.248;10.336;2023-09-18T04:48:59;7.40;;;4.82;;
7027;SDS011;3555;53.248;10.336;2023-09-18T04:51:30;7.50;;;5.50;;
7027;SDS011;3555;53.248;10.336;2023-09-18T04:53:57;5.43;;;4.93;;
7027;SDS011;3555;53.248;10.336;2023-09-18T04:56:24;6.78;;;5.05;;
7027;SDS011;3555;53.248;10.336;2023-09-18T04:58:52;5.43;;;4.93;;
7027;SDS011;3555;53.248;10.336;2023-09-18T05:01:19;5.80;;;5.20;;
7027;SDS011;3555;53.248;10.336;2023-09-18T05:03:45;5.68;;;5.10;;
7027;SDS011;3555;53.248;10.336;2023-09-18T05:06:13;5.70;;;5.05;;
7027;SDS011;3555;53.248;10.336;2023-09-18T05:08:42;7.15;;;5.63;;
7027;SDS011;3555;53.248;10.336;2023-09-18T05:11:09;6.93;;;5.90;;
7027;SDS011;3555;53.248;10.336;2023-09-18T05:13:36;5.65;;;5.15;;
7027;SDS011;3555;53.248;10.336;2023-09-18T05:16:02;6.80;;;5.38;;
7027;SDS011;3555;53.248;10.336;2023-09-18T05:18:29;5.65;;;5.15;;
7027;SDS011;3555;53.248;10.336;2023-09-18T05:20:56;9.43;;;5.07;;
7027;SDS011;3555;53.248;10.336;2023-09-18T05:23:23;6.35;;;5.38;;
7027;SDS011;3555;53.248;10.336;2023-09-18T05:25:51;5.30;;;4.80;;
7027;SDS011;3555;53.248;10.336;2023-09-18T05:28:18;5.40;;;4.90;;
7027;SDS011;3555;53.248;10.336;2023-09-18T05:30:45;7.13;;;5.20;;
7027;SDS011;3555;53.248;10.336;2023-09-18T05:33:12;8.48;;;5.22;;
7027;SDS011;3555;53.248;10.336;2023-09-18T05:35:39;5.72;;;5.22;;
7027;SDS011;3555;53.248;10.336;2023-09-18T05:38:08;8.45;;;5.32;;
7027;SDS011;3555;53.248;10.336;2023-09-18T05:40:36;6.25;;;4.70;;
7027;SDS011;3555;53.248;10.336;2023-09-18T05:43:04;7.03;;;5.47;;
7027;SDS011;3555;53.248;10.336;2023-09-18T05:45:32;7.07;;;5.50;;
7027;SDS011;3555;53.248;10.336;2023-09-18T05:47:59;7.15;;;5.05;;
7027;SDS011;3555;53.248;10.336;2023-09-18T05:50:29;7.22;;;5.32;;
7027;SDS011;3555;53.248;10.336;2023-09-18T05:52:56;6.72;;;4.95;;
7027;SDS011;3555;53.248;10.336;2023-09-18T05:55:25;5.63;;;5.13;;
7027;SDS011;3555;53.248;10.336;2023-09-18T05:57:53;6.47;;;5.20;;
7027;SDS011;3555;53.248;10.336;2023-09-18T06:00:21;5.70;;;5.20;;
7027;SDS011;3555;53.248;10.336;2023-09-18T06:02:48;6.95;;;4.90;;
7027;SDS011;3555;53.248;10.336;2023-09-18T06:05:16;5.22;;;4.75;;
7027;SDS011;3555;53.248;10.336;2023-09-18T06:07:46;6.10;;;4.32;;
7027;SDS011;3555;53.248;10.336;2023-09-18T06:10:13;4.55;;;4.15;;
7027;SDS011;3555;53.248;10.336;2023-09-18T06:12:41;7.55;;;4.72;;
7027;SDS011;3555;53.248;10.336;2023-09-18T06:15:09;4.68;;;4.28;;
7027;SDS011;3555;53.248;10.336;2023-09-18T06:17:37;4.72;;;4.20;;
7027;SDS011;3555;53.248;10.336;2023-09-18T06:20:06;5.95;;;4.45;;
7027;SDS011;3555;53.248;10.336;2023-09-18T06:22:34;6.15;;;4.50;;
7027;SDS011;3555;53.248;10.336;2023-09-18T06:25:02;6.75;;;5.00;;
7027;SDS011;3555;53.248;10.336;2023-09-18T06:27:29;6.90;;;4.45;;
7027;SDS011;3555;53.248;10.336;2023-09-18T06:29:57;5.55;;;4.03;;
7027;SDS011;3555;53.248;10.336;2023-09-18T06:32:23;5.15;;;4.65;;
7027;SDS011;3555;53.248;10.336;2023-09-18T06:34:52;4.68;;;4.22;;
7027;SDS011;3555;53.248;10.336;2023-09-18T06:37:18;6.15;;;4.70;;
7027;SDS011;3555;53.248;10.336;2023-09-18T06:39:46;5.28;;;4.78;;
7027;SDS011;3555;53.248;10.336;2023-09-18T06:42:13;7.13;;;4.53;;
7027;SDS011;3555;53.248;10.336;2023-09-18T06:44:39;4.68;;;4.22;;
7027;SDS011;3555;53.248;10.336;2023-09-18T06:47:06;4.97;;;4.47;;
7027;SDS011;3555;53.248;10.336;2023-09-18T06:49:33;4.82;;;4.40;;
7027;SDS011;3555;53.248;10.336;2023-09-18T06:52:02;4.65;;;4.18;;
7027;SDS011;3555;53.248;10.336;2023-09-18T06:54:30;4.72;;;4.18;;
7027;SDS011;3555;53.248;10.336;2023-09-18T06:56:56;5.63;;;4.25;;
7027;SDS011;3555;53.248;10.336;2023-09-18T06:59:23;5.30;;;4.30;;
7027;SDS011;3555;53.248;10.336;2023-09-18T07:01:50;4.38;;;3.97;;
7027;SDS011;3555;53.248;10.336;2023-09-18T07:04:17;6.85;;;4.13;;
7027;SDS011;3555;53.248;10.336;2023-09-18T07:06:44;5.93;;;3.97;;
7027;SDS011;3555;53.248;10.336;2023-09-18T07:09:12;5.07;;;4.57;;
7027;SDS011;3555;53.248;10.336;2023-09-18T07:11:40;6.18;;;4.30;;
7027;SDS011;3555;53.248;10.336;2023-09-18T07:14:06;4.80;;;4.32;;
7027;SDS011;3555;53.248;10.336;2023-09-18T07:16:33;6.45;;;4.38;;
7027;SDS011;3555;53.248;10.336;2023-09-18T07:19:00;4.43;;;4.03;;
7027;SDS011;3555;53.248;10.336;2023-09-18T07:21:29;4.50;;;3.95;;
7027;SDS011;3555;53.248;10.336;2023-09-18T07:23:56;5.07;;;4.57;;
7027;SDS011;3555;53.248;10.336;2023-09-18T07:26:24;4.93;;;4.32;;
7027;SDS011;3555;53.248;10.336;2023-09-18T07:28:51;6.32;;;4.25;;
7027;SDS011;3555;53.248;10.336;2023-09-18T07:31:18;4.32;;;3.92;;
7027;SDS011;3555;53.248;10.336;2023-09-18T07:33:45;5.82;;;4.28;;
7027;SDS011;3555;53.248;10.336;2023-09-18T07:36:12;4.28;;;3.88;;
7027;SDS011;3555;53.248;10.336;2023-09-18T07:38:40;4.22;;;3.83;;
7027;SDS011;3555;53.248;10.336;2023-09-18T07:41:08;4.65;;;4.15;;
7027;SDS011;3555;53.248;10.336;2023-09-18T07:43:36;5.03;;;3.90;;
7027;SDS011;3555;53.248;10.336;2023-09-18T07:46:04;4.13;;;3.72;;
7027;SDS011;3555;53.248;10.336;2023-09-18T07:48:31;6.25;;;3.80;;
7027;SDS011;3555;53.248;10.336;2023-09-18T07:50:59;8.15;;;3.65;;
7027;SDS011;3555;53.248;10.336;2023-09-18T07:53:26;3.90;;;3.60;;
7027;SDS011;3555;53.248;10.336;2023-09-18T07:55:55;4.15;;;3.75;;
7027;SDS011;3555;53.248;10.336;2023-09-18T07:58:23;4.65;;;3.80;;
7027;SDS011;3555;53.248;10.336;2023-09-18T08:00:54;6.82;;;3.90;;
7027;SDS011;3555;53.248;10.336;2023-09-18T08:03:22;5.30;;;3.40;;
7027;SDS011;3555;53.248;10.336;2023-09-18T08:05:49;4.22;;;3.45;;
7027;SDS011;3555;53.248;10.336;2023-09-18T08:08:18;4.20;;;3.53;;
7027;SDS011;3555;53.248;10.336;2023-09-18T08:10:47;4.65;;;3.95;;
7027;SDS011;3555;53.248;10.336;2023-09-18T08:13:14;6.28;;;3.80;;
7027;SDS011;3555;53.248;10.336;2023-09-18T08:15:41;5.35;;;3.53;;
7027;SDS011;3555;53.248;10.336;2023-09-18T08:18:10;4.40;;;3.67;;
7027;SDS011;3555;53.248;10.336;2023-09-18T08:20:40;4.90;;;4.03;;
7027;SDS011;3555;53.248;10.336;2023-09-18T08:23:07;7.38;;;3.55;;
7027;SDS011;3555;53.248;10.336;2023-09-18T08:25:34;4.18;;;3.70;;
7027;SDS011;3555;53.248;10.336;2023-09-18T08:28:02;4.13;;;3.70;;
7027;SDS011;3555;53.248;10.336;2023-09-18T08:30:29;4.10;;;3.40;;
7027;SDS011;3555;53.248;10.336;2023-09-18T08:32:56;3.65;;;3.35;;
7027;SDS011;3555;53.248;10.336;2023-09-18T08:35:24;4.13;;;3.22;;
7027;SDS011;3555;53.248;10.336;2023-09-18T08:37:54;4.57;;;3.72;;
7027;SDS011;3555;53.248;10.336;2023-09-18T08:40:22;4.38;;;3.58;;
7027;SDS011;3555;53.248;10.336;2023-09-18T08:42:51;4.97;;;3.80;;
7027;SDS011;3555;53.248;10.336;2023-09-18T08:45:23;4.05;;;3.50;;
7027;SDS011;3555;53.248;10.336;2023-09-18T08:47:54;4.45;;;3.83;;
7027;SDS011;3555;53.248;10.336;2023-09-18T08:50:21;4.15;;;3.78;;
7027;SDS011;3555;53.248;10.336;2023-09-18T08:52:51;5.97;;;4.32;;
7027;SDS011;3555;53.248;10.336;2023-09-18T08:55:19;5.47;;;3.80;;
7027;SDS011;3555;53.248;10.336;2023-09-18T08:57:47;4.45;;;3.65;;
7027;SDS011;3555;53.248;10.336;2023-09-18T09:00:15;11.43;;;4.53;;
7027;SDS011;3555;53.248;10.336;2023-09-18T09:02:43;5.10;;;4.10;;
7027;SDS011;3555;53.248;10.336;2023-09-18T09:05:10;4.57;;;3.88;;
7027;SDS011;3555;53.248;10.336;2023-09-18T09:07:36;6.25;;;4.40;;
7027;SDS011;3555;53.248;10.336;2023-09-18T09:10:05;6.22;;;4.38;;
7027;SDS011;3555;53.248;10.336;2023-09-18T09:12:52;4.15;;;3.75;;
7027;SDS011;3555;53.248;10.336;2023-09-18T09:15:20;4.68;;;4.22;;
7027;SDS011;3555;53.248;10.336;2023-09-18T09:17:48;4.50;;;4.10;;
7027;SDS011;3555;53.248;10.336;2023-09-18T09:20:16;8.18;;;4.22;;
7027;SDS011;3555;53.248;10.336;2023-09-18T09:22:44;4.95;;;4.00;;
7027;SDS011;3555;53.248;10.336;2023-09-18T09:25:25;4.22;;;3.47;;
7027;SDS011;3555;53.248;10.336;2023-09-18T09:27:56;4.65;;;3.65;;
7027;SDS011;3555;53.248;10.336;2023-09-18T09:30:24;4.25;;;3.85;;
7027;SDS011;3555;53.248;10.336;2023-09-18T09:32:53;4.10;;;3.70;;
7027;SDS011;3555;53.248;10.336;2023-09-18T09:35:21;4.43;;;3.58;;
7027;SDS011;3555;53.248;10.336;2023-09-18T09:37:52;5.20;;;3.67;;
7027;SDS011;3555;53.248;10.336;2023-09-18T09:40:20;6.82;;;3.80;;
7027;SDS011;3555;53.248;10.336;2023-09-18T09:42:52;4.97;;;3.40;;
7027;SDS011;3555;53.248;10.336;2023-09-18T09:45:25;7.53;;;4.00;;
7027;SDS011;3555;53.248;10.336;2023-09-18T09:47:52;6.82;;;3.63;;
7027;SDS011;3555;53.248;10.336;2023-09-18T09:50:20;5.80;;;3.85;;
7027;SDS011;3555;53.248;10.336;2023-09-18T09:52:48;6.53;;;3.50;;
7027;SDS011;3555;53.248;10.336;2023-09-18T09:55:19;8.07;;;3.63;;
7027;SDS011;3555;53.248;10.336;2023-09-18T09:57:48;5.13;;;3.97;;
7027;SDS011;3555;53.248;10.336;2023-09-18T10:00:18;4.10;;;3.60;;
7027;SDS011;3555;53.248;10.336;2023-09-18T10:02:53;4.30;;;3.65;;
7027;SDS011;3555;53.248;10.336;2023-09-18T10:05:23;3.60;;;3.30;;
7027;SDS011;3555;53.248;10.336;2023-09-18T10:07:53;5.97;;;3.58;;
7027;SDS011;3555;53.248;10.336;2023-09-18T10:10:23;3.80;;;3.47;;
7027;SDS011;3555;53.248;10.336;2023-09-18T10:12:52;4.47;;;3.42;;
7027;SDS011;3555;53.248;10.336;2023-09-18T10:15:23;6.20;;;3.47;;
7027;SDS011;3555;53.248;10.336;2023-09-18T10:17:52;4.55;;;3.38;;
7027;SDS011;3555;53.248;10.336;2023-09-18T10:20:26;4.25;;;3.20;;
7027;SDS011;3555;53.248;10.336;2023-09-18T10:22:56;4.07;;;3.40;;
7027;SDS011;3555;53.248;10.336;2023-09-18T10:25:28;4.43;;;3.47;;
7027;SDS011;3555;53.248;10.336;2023-09-18T10:27:57;4.30;;;3.63;;
7027;SDS011;3555;53.248;10.336;2023-09-18T10:30:28;4.95;;;2.90;;
7027;SDS011;3555;53.248;10.336;2023-09-18T10:32:58;6.43;;;3.60;;
7027;SDS011;3555;53.248;10.336;2023-09-18T10:35:26;6.40;;;3.50;;
7027;SDS011;3555;53.248;10.336;2023-09-18T10:37:53;4.57;;;3.20;;
7027;SDS011;3555;53.248;10.336;2023-09-18T10:40:21;5.78;;;3.60;;
7027;SDS011;3555;53.248;10.336;2023-09-18T10:42:48;4.78;;;3.35;;
7027;SDS011;3555;53.248;10.336;2023-09-18T10:45:18;5.18;;;3.38;;
7027;SDS011;3555;53.248;10.336;2023-09-18T10:47:47;6.97;;;3.63;;
7027;SDS011;3555;53.248;10.336;2023-09-18T10:50:22;6.82;;;3.78;;
7027;SDS011;3555;53.248;10.336;2023-09-18T10:52:50;4.70;;;3.45;;
7027;SDS011;3555;53.248;10.336;2023-09-18T10:55:17;4.15;;;3.50;;
7027;SDS011;3555;53.248;10.336;2023-09-18T10:57:50;5.68;;;3.10;;
7027;SDS011;3555;53.248;10.336;2023-09-18T11:00:17;5.45;;;3.38;;
7027;SDS011;3555;53.248;10.336;2023-09-18T11:02:49;6.50;;;3.30;;
7027;SDS011;3555;53.248;10.336;2023-09-18T11:05:30;6.85;;;3.22;;
7027;SDS011;3555;53.248;10.336;2023-09-18T11:10:59;4.07;;;3.00;;
7027;SDS011;3555;53.248;10.336;2023-09-18T11:13:30;6.15;;;3.28;;
7027;SDS011;3555;53.248;10.336;2023-09-18T11:16:00;4.57;;;2.63;;
7027;SDS011;3555;53.248;10.336;2023-09-18T11:18:33;6.53;;;2.78;;
7027;SDS011;3555;53.248;10.336;2023-09-18T11:21:06;6.05;;;3.20;;
7027;SDS011;3555;53.248;10.336;2023-09-18T11:23:34;7.05;;;3.25;;
7027;SDS011;3555;53.248;10.336;2023-09-18T11:26:03;4.95;;;3.10;;
7027;SDS011;3555;53.248;10.336;2023-09-18T11:28:31;5.30;;;3.35;;
7027;SDS011;3555;53.248;10.336;2023-09-18T11:30:58;5.68;;;2.97;;
7027;SDS011;3555;53.248;10.336;2023-09-18T11:33:30;3.97;;;2.95;;
7027;SDS011;3555;53.248;10.336;2023-09-18T11:36:03;4.97;;;3.40;;
7027;SDS011;3555;53.248;10.336;2023-09-18T11:41:19;8.00;;;2.90;;
7027;SDS011;3555;53.248;10.336;2023-09-18T11:43:49;3.95;;;2.70;;
7027;SDS011;3555;53.248;10.336;2023-09-18T11:46:19;4.65;;;2.78;;
7027;SDS011;3555;53.248;10.336;2023-09-18T11:48:48;6.55;;;3.10;;
7027;SDS011;3555;53.248;10.336;2023-09-18T11:51:22;8.38;;;2.97;;
7027;SDS011;3555;53.248;10.336;2023-09-18T11:53:53;5.13;;;3.00;;
7027;SDS011;3555;53.248;10.336;2023-09-18T11:56:22;7.43;;;3.38;;
7027;SDS011;3555;53.248;10.336;2023-09-18T11:58:49;6.97;;;3.10;;
7027;SDS011;3555;53.248;10.336;2023-09-18T12:01:17;7.20;;;3.28;;
7027;SDS011;3555;53.248;10.336;2023-09-18T12:03:45;6.93;;;2.83;;
7027;SDS011;3555;53.248;10.336;2023-09-18T12:06:15;7.22;;;2.78;;
7027;SDS011;3555;53.248;10.336;2023-09-18T12:08:43;4.70;;;2.63;;
7027;SDS011;3555;53.248;10.336;2023-09-18T12:11:11;5.78;;;2.90;;
7027;SDS011;3555;53.248;10.336;2023-09-18T12:13:41;8.10;;;2.40;;
7027;SDS011;3555;53.248;10.336;2023-09-18T12:16:09;5.68;;;2.10;;
7027;SDS011;3555;53.248;10.336;2023-09-18T12:18:35;8.02;;;2.33;;
7027;SDS011;3555;53.248;10.336;2023-09-18T12:21:05;4.38;;;2.20;;
7027;SDS011;3555;53.248;10.336;2023-09-18T12:23:40;4.82;;;2.20;;
7027;SDS011;3555;53.248;10.336;2023-09-18T12:26:09;7.50;;;2.28;;
7027;SDS011;3555;53.248;10.336;2023-09-18T12:28:38;4.63;;;2.15;;
7027;SDS011;3555;53.248;10.336;2023-09-18T12:31:05;5.05;;;2.40;;
7027;SDS011;3555;53.248;10.336;2023-09-18T12:33:36;5.53;;;2.25;;
7027;SDS011;3555;53.248;10.336;2023-09-18T12:36:04;7.65;;;2.22;;
7027;SDS011;3555;53.248;10.336;2023-09-18T12:38:33;4.03;;;2.05;;
7027;SDS011;3555;53.248;10.336;2023-09-18T12:41:03;4.70;;;1.98;;
7027;SDS011;3555;53.248;10.336;2023-09-18T12:43:33;4.50;;;2.22;;
7027;SDS011;3555;53.248;10.336;2023-09-18T12:46:01;5.28;;;2.10;;
7027;SDS011;3555;53.248;10.336;2023-09-18T12:48:30;5.10;;;2.20;;
7027;SDS011;3555;53.248;10.336;2023-09-18T12:51:02;4.63;;;1.80;;
7027;SDS011;3555;53.248;10.336;2023-09-18T12:53:29;5.30;;;1.77;;
7027;SDS011;3555;53.248;10.336;2023-09-18T12:56:05;3.75;;;1.60;;
7027;SDS011;3555;53.248;10.336;2023-09-18T12:58:33;4.22;;;1.75;;
7027;SDS011;3555;53.248;10.336;2023-09-18T13:01:03;3.75;;;1.73;;
7027;SDS011;3555;53.248;10.336;2023-09-18T13:03:34;6.88;;;1.90;;
7027;SDS011;3555;53.248;10.336;2023-09-18T13:06:07;5.65;;;1.73;;
7027;SDS011;3555;53.248;10.336;2023-09-18T13:08:35;6.30;;;2.03;;
7027;SDS011;3555;53.248;10.336;2023-09-18T13:11:02;3.67;;;1.70;;
7027;SDS011;3555;53.248;10.336;2023-09-18T13:13:32;6.30;;;1.73;;
7027;SDS011;3555;53.248;10.336;2023-09-18T13:16:04;6.80;;;2.05;;
7027;SDS011;3555;53.248;10.336;2023-09-18T13:18:34;3.53;;;1.52;;
7027;SDS011;3555;53.248;10.336;2023-09-18T13:21:08;4.82;;;1.60;;
7027;SDS011;3555;53.248;10.336;2023-09-18T13:23:36;5.60;;;1.77;;
7027;SDS011;3555;53.248;10.336;2023-09-18T13:26:03;3.97;;;1.60;;
7027;SDS011;3555;53.248;10.336;2023-09-18T13:28:32;3.75;;;1.60;;
7027;SDS011;3555;53.248;10.336;2023-09-18T13:31:01;4.80;;;1.77;;
7027;SDS011;3555;53.248;10.336;2023-09-18T13:33:30;4.95;;;1.75;;
7027;SDS011;3555;53.248;10.336;2023-09-18T13:35:58;4.88;;;1.48;;
7027;SDS011;3555;53.248;10.336;2023-09-18T13:38:25;5.65;;;1.80;;
7027;SDS011;3555;53.248;10.336;2023-09-18T13:40:52;3.10;;;1.60;;
7027;SDS011;3555;53.248;10.336;2023-09-18T13:43:20;5.20;;;1.90;;
7027;SDS011;3555;53.248;10.336;2023-09-18T13:45:49;5.38;;;1.45;;
7027;SDS011;3555;53.248;10.336;2023-09-18T13:48:17;5.25;;;1.67;;
7027;SDS011;3555;53.248;10.336;2023-09-18T13:50:45;5.22;;;1.65;;
7027;SDS011;3555;53.248;10.336;2023-09-18T13:53:12;7.30;;;2.00;;
7027;SDS011;3555;53.248;10.336;2023-09-18T13:55:40;8.15;;;1.83;;
7027;SDS011;3555;53.248;10.336;2023-09-18T13:58:07;2.90;;;1.48;;
7027;SDS011;3555;53.248;10.336;2023-09-18T14:00:34;4.53;;;1.55;;
7027;SDS011;3555;53.248;10.336;2023-09-18T14:03:03;4.82;;;1.60;;
7027;SDS011;3555;53.248;10.336;2023-09-18T14:05:30;5.72;;;1.95;;
7027;SDS011;3555;53.248;10.336;2023-09-18T14:07:59;3.25;;;1.35;;
7027;SDS011;3555;53.248;10.336;2023-09-18T14:10:28;4.18;;;1.23;;
7027;SDS011;3555;53.248;10.336;2023-09-18T14:12:55;3.60;;;1.67;;
7027;SDS011;3555;53.248;10.336;2023-09-18T14:15:22;4.20;;;1.67;;
7027;SDS011;3555;53.248;10.336;2023-09-18T14:17:49;4.88;;;1.95;;
7027;SDS011;3555;53.248;10.336;2023-09-18T14:20:18;4.68;;;1.52;;
7027;SDS011;3555;53.248;10.336;2023-09-18T14:22:45;4.90;;;1.67;;
7027;SDS011;3555;53.248;10.336;2023-09-18T14:25:14;2.53;;;1.40;;
7027;SDS011;3555;53.248;10.336;2023-09-18T14:27:41;2.08;;;1.20;;
7027;SDS011;3555;53.248;10.336;2023-09-18T14:30:08;3.00;;;1.65;;
7027;SDS011;3555;53.248;10.336;2023-09-18T14:32:38;5.07;;;1.42;;
7027;SDS011;3555;53.248;10.336;2023-09-18T14:35:06;2.78;;;1.30;;
7027;SDS011;3555;53.248;10.336;2023-09-18T14:37:35;4.80;;;1.60;;
7027;SDS011;3555;53.248;10.336;2023-09-18T14:40:02;5.65;;;2.15;;
7027;SDS011;3555;53.248;10.336;2023-09-18T14:42:30;6.68;;;1.60;;
7027;SDS011;3555;53.248;10.336;2023-09-18T14:44:58;5.45;;;2.00;;
7027;SDS011;3555;53.248;10.336;2023-09-18T14:47:26;4.55;;;1.77;;
7027;SDS011;3555;53.248;10.336;2023-09-18T14:49:53;3.65;;;1.50;;
7027;SDS011;3555;53.248;10.336;2023-09-18T14:52:19;2.65;;;1.55;;
7027;SDS011;3555;53.248;10.336;2023-09-18T14:54:49;3.88;;;1.90;;
7027;SDS011;3555;53.248;10.336;2023-09-18T14:57:16;3.13;;;1.65;;
7027;SDS011;3555;53.248;10.336;2023-09-18T14:59:43;4.43;;;2.00;;
7027;SDS011;3555;53.248;10.336;2023-09-18T15:02:12;6.07;;;1.77;;
7027;SDS011;3555;53.248;10.336;2023-09-18T15:04:41;8.00;;;1.88;;
7027;SDS011;3555;53.248;10.336;2023-09-18T15:07:08;3.72;;;1.55;;
7027;SDS011;3555;53.248;10.336;2023-09-18T15:09:35;4.25;;;1.52;;
7027;SDS011;3555;53.248;10.336;2023-09-18T15:12:04;4.78;;;1.38;;